Home > Products > Valid Products > MTR

000
SAUS43 KDLH 290757
MTRGNA
METAR KGNA 290756Z AUTO 00000KT M01/M03 A3016 RMK AO1 SLP223
T10061028





000
SAUS43 KDLH 290657
MTRGNA
METAR KGNA 290656Z AUTO 00000KT M01/M03 A3016 RMK AO1 SLP223
T10061028





000
SAUS43 KDLH 290557
MTRGNA
METAR KGNA 290556Z AUTO 00000KT M01/M03 A3016 RMK AO1 SLP221
T10061028 10039 21006 400671006 53002





000
SAUS43 KDLH 290557
MTRGNA
METAR KGNA 290556Z AUTO 00000KT M01/M03 A3016 RMK AO1 SLP221
T10061028 10039 21006 400671006 53002





000
SAUS43 KDLH 290457
MTRGNA
METAR KGNA 290456Z AUTO 00000KT M01/M03 A3014 RMK AO1 SLP217
T10061028





000
SAUS43 KDLH 290357
MTRGNA
METAR KGNA 290356Z AUTO 00000KT 00/M03 A3015 RMK AO1 SLP219
T00001028





000
SAUS43 KDLH 290257
MTRGNA
METAR KGNA 290256Z AUTO 00000KT 00/M03 A3015 RMK AO1 SLP220
T00001028 50004





000
SAUS43 KDLH 290257
MTRGNA
METAR KGNA 290256Z AUTO 00000KT 00/M03 A3015 RMK AO1 SLP220
T00001028 50004





000
SAUS43 KDLH 290157
MTRGNA
METAR KGNA 290156Z AUTO 00000KT 01/M02 A3016 RMK AO1 SLP220
T00111017





000
SAUS43 KDLH 290057
MTRGNA
METAR KGNA 290056Z AUTO 06004KT 03/M01 A3015 RMK AO1 SLP217
T00331006





000
SAUS43 KDLH 282357
MTRGNA
METAR KGNA 282356Z AUTO 06008KT 04/M01 A3014 RMK AO1 SLP213
T00391006 10056 20033 57001





000
SAUS43 KDLH 282257
MTRGNA
METAR KGNA 282256Z AUTO 06007KT 04/M01 A3014 RMK AO1 SLP213
T00391006





000
SAUS43 KDLH 282257
MTRGNA
METAR KGNA 282256Z AUTO 06007KT 04/M01 A3014 RMK AO1 SLP213
T00391006





000
SAUS43 KDLH 282157
MTRGNA
METAR KGNA 282156Z AUTO 06008KT 04/M01 A3014 RMK AO1 SLP215
T00391006





000
SAUS43 KDLH 282057
MTRGNA
METAR KGNA 282056Z AUTO 06008KT 04/M01 A3014 RMK AO1 SLP214
T00391006 58002





000
SAUS43 KDLH 281957
MTRGNA
METAR KGNA 281956Z AUTO 07010KT 04/M01 A3015 RMK AO1 SLP216
T00391011





000
SAUS43 KDLH 281857
MTRGNA
METAR KGNA 281856Z AUTO 07009KT 05/M01 A3015 RMK AO1 SLP217
T00501011





000
SAUS43 KDLH 281757
MTRGNA
METAR KGNA 281756Z AUTO 06009G17KT 04/M01 A3015 RMK AO1 SLP218
T00441011 10056 20033 53002





000
SAUS43 KDLH 281757
MTRGNA
METAR KGNA 281756Z AUTO 06009G17KT 04/M01 A3015 RMK AO1 SLP218
T00441011 10056 20033 53002





000
SAUS43 KDLH 281657
MTRGNA
METAR KGNA 281656Z AUTO 06011G17KT 04/M01 A3014 RMK AO1 SLP217
T00441011





000
SAUS43 KDLH 281557
MTRGNA
METAR KGNA 281556Z AUTO 07010KT 04/M01 A3014 RMK AO1 SLP217
T00441011





000
SAUS43 KDLH 281458
MTRGNA
METAR KGNA 281456Z AUTO 06010G16KT 05/M03 A3014 RMK AO1 SLP216
T00501028 58001





000
SAUS43 KDLH 281357
MTRGNA
METAR KGNA 281356Z AUTO 06009G15KT 06/M06 A3015 RMK AO1 SLP219
T00561056





000
SAUS43 KDLH 281357
MTRGNA
METAR KGNA 281356Z AUTO 06009G15KT 06/M06 A3015 RMK AO1 SLP219
T00561056





000
SAUS43 KDLH 281257
MTRGNA
METAR KGNA 281256Z AUTO 05012G18KT 04/M05 A3016 RMK AO1 SLP221
T00441050





000
SAUS43 KDLH 281257
MTRGNA
METAR KGNA 281256Z AUTO 05012G18KT 04/M05 A3016 RMK AO1 SLP221
T00441050





000
SAUS43 KDLH 281157
MTRGNA
METAR KGNA 281156Z AUTO 06012G17KT 04/M05 A3014 RMK AO1 SLP216
T00441050 10067 20011 53018





000
SAUS43 KDLH 281157
MTRGNA
METAR KGNA 281156Z AUTO 06012G17KT 04/M05 A3014 RMK AO1 SLP216
T00441050 10067 20011 53018





000
SAUS43 KDLH 281057
MTRGNA
METAR KGNA 281056Z AUTO 05011G20KT 05/M06 A3012 RMK AO1 SLP207
T00501061





000
SAUS43 KDLH 281057
MTRGNA
METAR KGNA 281056Z AUTO 05011G20KT 05/M06 A3012 RMK AO1 SLP207
T00501061





000
SAUS43 KDLH 280958
MTRGNA
METAR KGNA 280956Z AUTO 05012KT 05/M08 A3011 RMK AO1 SLP202
T00501078





000
SAUS43 KDLH 280857
MTRGNA
METAR KGNA 280856Z AUTO 05010KT 06/M09 A3009 RMK AO1 SLP196
T00561094 55003





000
SAUS43 KDLH 280757
MTRGNA
METAR KGNA 280756Z AUTO 05010G19KT 07/M10 A3007 RMK AO1 SLP190
T00671100





000
SAUS43 KDLH 280657
MTRGNA
METAR KGNA 280656Z AUTO 04009KT 06/M11 A3008 RMK AO1 SLP192
T00611106





000
SAUS43 KDLH 280557
MTRGNA
METAR KGNA 280556Z AUTO 07003KT 01/M07 A3010 RMK AO1 SLP201
T00111067 10033 21011 400561017 58003





000
SAUS43 KDLH 280557
MTRGNA
METAR KGNA 280556Z AUTO 07003KT 01/M07 A3010 RMK AO1 SLP201
T00111067 10033 21011 400561017 58003





000
SAUS43 KDLH 280457
MTRGNA
METAR KGNA 280456Z AUTO 00000KT 01/M08 A3011 RMK AO1 SLP204
T00061083





000
SAUS43 KDLH 280357
MTRGNA
METAR KGNA 280356Z AUTO 00000KT 00/M07 A3010 RMK AO1 SLP204
T00001067





000
SAUS43 KDLH 280257
MTRGNA
METAR KGNA 280256Z AUTO 00000KT M01/M06 A3011 RMK AO1 SLP206
T10061061 53009





000
SAUS43 KDLH 280257
MTRGNA
METAR KGNA 280256Z AUTO 00000KT M01/M06 A3011 RMK AO1 SLP206
T10061061 53009





000
SAUS43 KDLH 280157
MTRGNA
METAR KGNA 280156Z AUTO 00000KT 01/M04 A3010 RMK AO1 SLP201
T00061044





000
SAUS43 KDLH 280057
MTRGNA
METAR KGNA 280056Z AUTO 04003KT 03/M04 A3008 RMK AO1 SLP194
T00281044





000
SAUS43 KDLH 272357
MTRGNA
METAR KGNA 272356Z AUTO 06006KT 03/M03 A3008 RMK AO1 SLP196
T00281033 10056 20028 56014





000
SAUS43 KDLH 272357
MTRGNA
METAR KGNA 272356Z AUTO 06006KT 03/M03 A3008 RMK AO1 SLP196
T00281033 10056 20028 56014





000
SAUS43 KDLH 272257
MTRGNA
METAR KGNA 272256Z AUTO 07005KT 03/M03 A3009 RMK AO1 SLP197
T00331028





000
SAUS43 KDLH 272157
MTRGNA
METAR KGNA 272156Z AUTO 08003KT 04/M03 A3011 RMK AO1 SLP205
T00391033





000
SAUS43 KDLH 272058
MTRGNA
METAR KGNA 272056Z AUTO 08004KT 04/M03 A3012 RMK AO1 SLP209
T00391028 58012





000
SAUS43 KDLH 272058
MTRGNA
METAR KGNA 272056Z AUTO 08004KT 04/M03 A3012 RMK AO1 SLP209
T00391028 58012





000
SAUS43 KDLH 271957
MTRGNA
METAR KGNA 271956Z AUTO 07007KT 04/M03 A3013 RMK AO1 SLP212
T00391028





000
SAUS43 KDLH 271857
MTRGNA
METAR KGNA 271856Z AUTO 12004KT 04/M02 A3016 RMK AO1 SLP223
T00391017





000
SAUS43 KDLH 271757
MTRGNA
METAR KGNA 271756Z AUTO 07005KT 04/M01 A3016 RMK AO1 SLP223
T00391011 10039 20028 58007





000
SAUS43 KDLH 271757
MTRGNA
METAR KGNA 271756Z AUTO 07005KT 04/M01 A3016 RMK AO1 SLP223
T00391011 10039 20028 58007





000
SAUS43 KDLH 271657
MTRGNA
METAR KGNA 271656Z AUTO 08008KT 04/M01 A3017 RMK AO1 SLP227
T00391011





000
SAUS43 KDLH 271657
MTRGNA
METAR KGNA 271656Z AUTO 08008KT 04/M01 A3017 RMK AO1 SLP227
T00391011





000
SAUS43 KDLH 271557
MTRGNA
METAR KGNA 271556Z AUTO 07008KT 03/M02 A3018 RMK AO1 SLP229
T00331017





000
SAUS43 KDLH 271457
MTRGNA
METAR KGNA 271456Z AUTO 07009KT 03/M03 A3018 RMK AO1 SLP230
T00331028 53001





000
SAUS43 KDLH 271357
MTRGNA
METAR KGNA 271356Z AUTO 09007KT 04/M04 A3017 RMK AO1 SLP228
T00391044





000
SAUS43 KDLH 271257
MTRGNA
METAR KGNA 271256Z AUTO 06008KT 03/M07 A3017 RMK AO1 SLP225
T00331067





000
SAUS43 KDLH 271157
MTRGNA
METAR KGNA 271156Z AUTO 05006KT 03/M08 A3017 RMK AO1 SLP226
T00281078 10028 21017 51009





000
SAUS43 KDLH 271157
MTRGNA
METAR KGNA 271156Z AUTO 05006KT 03/M08 A3017 RMK AO1 SLP226
T00281078 10028 21017 51009





000
SAUS43 KDLH 271057
MTRGNA
METAR KGNA 271056Z AUTO 04005KT 02/M09 A3017 RMK AO1 SLP225
T00171089





000
SAUS43 KDLH 271057
MTRGNA
METAR KGNA 271056Z AUTO 04005KT 02/M09 A3017 RMK AO1 SLP225
T00171089





000
SAUS43 KDLH 270957
MTRGNA
METAR KGNA 270956Z AUTO 03005KT 02/M09 A3017 RMK AO1 SLP224
T00171094





000
SAUS43 KDLH 270858
MTRGNA
METAR KGNA 270856Z AUTO 02003KT 01/M08 A3015 RMK AO1 SLP218
T00061083 53001





000
SAUS43 KDLH 270758
MTRGNA
METAR KGNA 270756Z AUTO 05003KT 01/M07 A3013 RMK AO1 SLP211
T00061067





000
SAUS43 KDLH 270657
MTRGNA
METAR KGNA 270656Z AUTO 00000KT M02/M06 A3014 RMK AO1 SLP218
T10171056





000
SAUS43 KDLH 270558
MTRGNA
METAR KGNA 270556Z AUTO 34004KT M02/M06 A3015 RMK AO1 SLP218
T10171056 10039 21017 400501017 50005





000
SAUS43 KDLH 270457
MTRGNA
METAR KGNA 270456Z AUTO 00000KT M01/M06 A3015 RMK AO1 SLP219
T10111061





000
SAUS43 KDLH 270357
MTRGNA
METAR KGNA 270356Z AUTO 00000KT M01/M07 A3013 RMK AO1 SLP215
T10061067





000
SAUS43 KDLH 270258
MTRGNA
METAR KGNA 270256Z AUTO 36004KT M01/M06 A3013 RMK AO1 SLP213
T10061061 53005





000
SAUS43 KDLH 270158
MTRGNA
METAR KGNA 270156Z AUTO 35003KT M01/M05 A3012 RMK AO1 SLP210
T10061050





000
SAUS43 KDLH 270057
MTRGNA
METAR KGNA 270056Z AUTO 07005KT 03/M06 A3012 RMK AO1 SLP208
T00331056





000
SAUS43 KDLH 262357
MTRGNA
METAR KGNA 262356Z AUTO 06007KT 04/M04 A3011 RMK AO1 SLP206
T00391044 10050 20033 55007





000
SAUS43 KDLH 262257
MTRGNA
METAR KGNA 262256Z AUTO 07006KT 04/M02 A3011 RMK AO1 SLP206
T00391017





000
SAUS43 KDLH 262157
MTRGNA
METAR KGNA 262156Z AUTO 06006KT 04/M02 A3012 RMK AO1 SLP209
T00391017





000
SAUS43 KDLH 262057
MTRGNA
METAR KGNA 262056Z AUTO 07008KT 04/M01 A3014 RMK AO1 SLP213
T00441011 55003





000
SAUS43 KDLH 262057
MTRGNA
METAR KGNA 262056Z AUTO 07008KT 04/M01 A3014 RMK AO1 SLP213
T00441011 55003





000
SAUS43 KDLH 261957
MTRGNA
METAR KGNA 261956Z AUTO 06011KT 05/M02 A3013 RMK AO1 SLP212
T00501017





000
SAUS43 KDLH 261857
MTRGNA
METAR KGNA 261856Z AUTO 08014KT 04/M03 A3014 RMK AO1 SLP216
T00391028





000
SAUS43 KDLH 261757
MTRGNA
METAR KGNA 261756Z AUTO 09014KT 05/M04 A3014 RMK AO1 SLP215
T00501044 10050 20033 51019





000
SAUS43 KDLH 261757
MTRGNA
METAR KGNA 261756Z AUTO 09014KT 05/M04 A3014 RMK AO1 SLP215
T00501044 10050 20033 51019





000
SAUS43 KDLH 261657
MTRGNA
METAR KGNA 261656Z AUTO 09017G21KT 04/M03 A3013 RMK AO1 SLP210
T00441033





000
SAUS43 KDLH 261557
MTRGNA
METAR KGNA 261556Z AUTO 07014KT 04/M03 A3010 RMK AO1 SLP203
T00391033





000
SAUS43 KDLH 261458
MTRGNA
METAR KGNA 261456Z AUTO 08019KT 03/M03 A3009 RMK AO1 SLP197
T00331033 51013





000
SAUS43 KDLH 261458
MTRGNA
METAR KGNA 261456Z AUTO 08019KT 03/M03 A3009 RMK AO1 SLP197
T00331033 51013





000
SAUS43 KDLH 261357
MTRGNA
METAR KGNA 261356Z AUTO 09011KT 03/M03 A3008 RMK AO1 SLP195
T00331028





000
SAUS43 KDLH 261258
MTRGNA
METAR KGNA 261256Z AUTO 07011G16KT 04/M07 A3007 RMK AO1 SLP189
T00441072





000
SAUS43 KDLH 261258
MTRGNA
METAR KGNA 261256Z AUTO 07011G16KT 04/M07 A3007 RMK AO1 SLP189
T00441072





000
SAUS43 KDLH 261157
MTRGNA
METAR KGNA 261156Z AUTO 04008KT 03/M07 A3005 RMK AO1 SLP183 70024
T00331072 10044 20017 53022





000
SAUS43 KDLH 261157
MTRGNA
METAR KGNA 261156Z AUTO 04008KT 03/M07 A3005 RMK AO1 SLP183 70024
T00331072 10044 20017 53022





000
SAUS43 KDLH 261058
MTRGNA
METAR KGNA 261056Z AUTO 05007KT 02/M07 A3002 RMK AO1 SLP176
T00221072





000
SAUS43 KDLH 261058
MTRGNA
METAR KGNA 261056Z AUTO 05007KT 02/M07 A3002 RMK AO1 SLP176
T00221072





000
SAUS43 KDLH 260957
MTRGNA
METAR KGNA 260956Z AUTO 04007KT 02/M07 A3000 RMK AO1 SLP168
T00221072





000
SAUS43 KDLH 260957
MTRGNA
METAR KGNA 260956Z AUTO 04007KT 02/M07 A3000 RMK AO1 SLP168
T00221072





000
SAUS43 KDLH 260857
MTRGNA
METAR KGNA 260856Z AUTO 05008KT 03/M07 A2998 RMK AO1 SLP161
T00331072 53006





    US Dept of Commerce
    National Oceanic and Atmospheric Administration
    National Weather Service
    1325 East West Highway
    Silver Spring, MD 20910
    Page Author: NWS Internet Services Team
Disclaimer
Information Quality
Credits
Glossary
Privacy Policy
Freedom of Information Act (FOIA)
About Us
Career Opportunities